createdAt,value
2022-10-16T00:00:21.840Z,78.26
2022-10-16T00:01:44.738Z,78.72
2022-10-16T00:03:51.417Z,79.04
2022-10-16T00:04:55.806Z,79.17
2022-10-16T00:06:00.941Z,79.29
2022-10-16T00:07:03.843Z,79.41
2022-10-16T00:08:06.928Z,79.47
2022-10-16T00:09:09.887Z,79.50
2022-10-16T00:10:12.771Z,79.50
2022-10-16T00:11:25.230Z,79.50
2022-10-16T00:12:28.325Z,79.49
2022-10-16T00:13:32.103Z,79.50
2022-10-16T00:14:35.064Z,79.48
2022-10-16T00:15:38.292Z,79.46
2022-10-16T00:16:41.903Z,79.46
2022-10-16T00:17:44.774Z,79.41
2022-10-16T00:18:47.896Z,79.37
2022-10-16T00:19:50.996Z,79.38
2022-10-16T00:21:57.021Z,79.41
2022-10-16T00:22:59.927Z,79.40
2022-10-16T00:24:07.266Z,79.39
2022-10-16T00:25:10.421Z,79.39
2022-10-16T00:26:18.965Z,79.38
2022-10-16T00:27:21.902Z,79.36
2022-10-16T00:28:25.065Z,79.35
2022-10-16T00:29:28.009Z,79.34
2022-10-16T00:30:31.174Z,79.31
2022-10-16T00:31:34.161Z,79.29
2022-10-16T00:32:37.052Z,79.25
2022-10-16T00:33:40.594Z,79.18
2022-10-16T00:34:43.658Z,79.10
2022-10-16T00:35:46.634Z,79.07
2022-10-16T00:36:49.602Z,79.02
2022-10-16T00:37:52.493Z,78.95
2022-10-16T00:38:56.431Z,78.88
2022-10-16T00:39:59.517Z,78.81
2022-10-16T00:41:02.558Z,78.79
2022-10-16T00:42:06.084Z,78.79
2022-10-16T00:43:27.506Z,78.80
2022-10-16T00:44:44.414Z,78.81
2022-10-16T00:45:47.469Z,78.85
2022-10-16T00:46:51.321Z,78.85
2022-10-16T00:47:56.548Z,78.87
2022-10-16T00:49:04.427Z,78.91
2022-10-16T00:50:14.458Z,78.95
2022-10-16T00:51:20.603Z,78.97
2022-10-16T00:52:23.792Z,79.04
2022-10-16T00:53:28.176Z,79.21
2022-10-16T00:54:32.470Z,79.19
2022-10-16T00:55:38.796Z,79.14
2022-10-16T00:56:45.846Z,79.30
2022-10-16T00:57:49.437Z,79.88
2022-10-16T00:58:52.522Z,80.48
2022-10-16T00:59:55.742Z,80.79
2022-10-16T01:00:58.599Z,80.88
2022-10-16T01:02:02.029Z,81.59
2022-10-16T01:03:23.377Z,81.74
2022-10-16T01:04:27.251Z,81.54
2022-10-16T01:05:37.363Z,79.83
2022-10-16T01:06:45.831Z,79.78
2022-10-16T01:08:02.190Z,80.41
2022-10-16T01:09:22.340Z,81.66
2022-10-16T01:10:35.835Z,81.59
2022-10-16T01:11:43.579Z,81.50
2022-10-16T01:13:00.797Z,81.74
2022-10-16T01:14:11.144Z,81.77
2022-10-16T01:15:20.548Z,81.87
2022-10-16T01:16:23.745Z,81.98
2022-10-16T01:17:34.000Z,82.02
2022-10-16T01:18:55.400Z,81.97
2022-10-16T01:20:04.571Z,81.93
2022-10-16T01:21:10.594Z,81.87
2022-10-16T01:22:14.243Z,81.95
2022-10-16T01:23:20.114Z,81.85
2022-10-16T01:24:31.919Z,81.82
2022-10-16T01:25:34.893Z,81.75
2022-10-16T01:26:56.094Z,81.65
2022-10-16T01:28:00.628Z,81.62
2022-10-16T01:29:12.923Z,81.52
2022-10-16T01:30:22.227Z,81.03
2022-10-16T01:31:26.952Z,80.71
2022-10-16T01:32:34.531Z,79.96
2022-10-16T01:33:41.997Z,79.06
2022-10-16T01:34:54.305Z,79.08
2022-10-16T01:36:00.299Z,79.61
2022-10-16T01:37:13.060Z,79.92
2022-10-16T01:38:16.241Z,78.02
2022-10-16T01:39:21.766Z,78.39
2022-10-16T01:40:27.406Z,78.60
2022-10-16T01:41:36.217Z,77.91
2022-10-16T01:42:42.952Z,78.21
2022-10-16T01:43:51.327Z,78.61
2022-10-16T01:44:55.972Z,78.59
2022-10-16T01:46:00.311Z,78.56
2022-10-16T01:47:04.070Z,78.75
2022-10-16T01:48:09.133Z,78.78
2022-10-16T01:49:14.433Z,78.86
2022-10-16T01:50:19.407Z,78.91
2022-10-16T01:51:23.082Z,79.01
2022-10-16T01:52:28.584Z,79.30
2022-10-16T01:53:32.418Z,79.42
2022-10-16T01:54:36.700Z,79.51
2022-10-16T01:55:44.800Z,79.36
2022-10-16T01:56:49.772Z,78.81
2022-10-16T01:57:53.941Z,79.86
2022-10-16T01:58:59.910Z,79.81
2022-10-16T02:00:05.428Z,79.60
2022-10-16T02:02:28.137Z,79.14
2022-10-16T02:03:32.001Z,79.30
2022-10-16T02:04:40.506Z,78.67
2022-10-16T02:05:54.494Z,78.90
2022-10-16T02:06:57.491Z,78.53
2022-10-16T02:08:03.197Z,78.70
2022-10-16T02:09:08.479Z,78.14
2022-10-16T02:10:11.387Z,78.84
2022-10-16T02:11:14.282Z,79.06
2022-10-16T02:12:24.197Z,79.07
2022-10-16T02:13:31.086Z,78.94
2022-10-16T02:14:34.019Z,78.78
2022-10-16T02:15:37.060Z,78.88
2022-10-16T02:16:41.512Z,78.79
2022-10-16T02:17:48.195Z,78.71
2022-10-16T02:18:51.127Z,78.66
2022-10-16T02:19:55.858Z,78.44
2022-10-16T02:21:20.126Z,78.50
2022-10-16T02:22:27.539Z,77.94
2022-10-16T02:23:30.796Z,77.83
2022-10-16T02:24:33.571Z,78.12
2022-10-16T02:25:38.679Z,78.23
2022-10-16T02:26:44.440Z,78.24
2022-10-16T02:28:00.464Z,78.26
2022-10-16T02:29:06.694Z,78.28
2022-10-16T02:30:15.386Z,78.25
2022-10-16T02:32:47.653Z,78.14
2022-10-16T02:33:52.067Z,77.99
2022-10-16T02:34:55.631Z,77.88
2022-10-16T02:35:58.782Z,77.69
2022-10-16T02:37:02.988Z,77.57
2022-10-16T02:38:07.249Z,77.49
2022-10-16T02:39:10.641Z,77.48
2022-10-16T02:40:13.608Z,77.42
2022-10-16T02:41:16.531Z,77.19
2022-10-16T02:42:19.767Z,77.05
2022-10-16T02:43:22.776Z,77.00
2022-10-16T02:44:26.164Z,76.92
2022-10-16T02:45:30.192Z,76.88
2022-10-16T02:46:33.296Z,76.91
2022-10-16T02:47:36.179Z,76.86
2022-10-16T02:48:40.415Z,76.75
2022-10-16T02:49:43.398Z,76.70
2022-10-16T02:50:46.456Z,76.65
2022-10-16T02:51:49.299Z,76.62
2022-10-16T02:52:52.206Z,76.72
2022-10-16T02:53:55.030Z,76.86
2022-10-16T02:54:57.952Z,76.99
2022-10-16T02:56:00.881Z,77.10
2022-10-16T02:57:03.799Z,77.20
2022-10-16T02:58:07.319Z,77.29
2022-10-16T02:59:10.385Z,77.42
2022-10-16T03:00:14.741Z,77.59
2022-10-16T03:01:18.029Z,77.72
2022-10-16T03:02:22.011Z,77.83
2022-10-16T03:03:25.383Z,77.91
2022-10-16T03:04:28.327Z,78.07
2022-10-16T03:05:31.464Z,78.06
2022-10-16T03:06:34.282Z,77.81
2022-10-16T03:07:37.124Z,78.03
2022-10-16T03:08:40.199Z,78.18
2022-10-16T03:09:43.631Z,78.25
2022-10-16T03:10:46.732Z,78.40
2022-10-16T03:11:49.787Z,78.45
2022-10-16T03:12:52.671Z,78.52
2022-10-16T03:13:55.599Z,78.56
2022-10-16T03:14:59.061Z,78.61
2022-10-16T03:16:02.655Z,78.64
2022-10-16T03:17:05.578Z,78.68
2022-10-16T03:18:14.160Z,78.71
2022-10-16T03:19:18.051Z,78.74
2022-10-16T03:20:21.339Z,78.76
2022-10-16T03:21:24.924Z,78.75
2022-10-16T03:22:27.759Z,78.75
2022-10-16T03:24:39.254Z,78.81
2022-10-16T03:25:49.522Z,78.81
2022-10-16T03:26:54.635Z,78.71
2022-10-16T03:27:57.515Z,78.73
2022-10-16T03:29:00.569Z,78.76
2022-10-16T03:30:03.844Z,78.81
2022-10-16T03:31:06.929Z,78.86
2022-10-16T03:32:10.034Z,78.91
2022-10-16T03:33:12.868Z,78.98
2022-10-16T03:34:15.831Z,79.10
2022-10-16T03:35:18.825Z,79.26
2022-10-16T03:36:22.125Z,79.63
2022-10-16T03:37:25.851Z,79.70
2022-10-16T03:38:28.984Z,79.51
2022-10-16T03:39:31.807Z,79.56
2022-10-16T03:40:34.690Z,79.68
2022-10-16T03:41:37.739Z,80.00
2022-10-16T03:42:40.750Z,80.35
2022-10-16T03:43:43.582Z,80.38
2022-10-16T03:44:46.646Z,80.45
2022-10-16T03:45:51.165Z,80.55
2022-10-16T03:46:54.143Z,80.76
2022-10-16T03:47:57.989Z,80.80
2022-10-16T03:49:01.720Z,80.79
2022-10-16T03:50:06.135Z,80.80
2022-10-16T03:51:09.028Z,80.77
2022-10-16T03:52:12.095Z,80.80
2022-10-16T03:53:15.540Z,80.70
2022-10-16T03:54:18.568Z,80.75
2022-10-16T03:55:21.529Z,80.69
2022-10-16T03:56:24.516Z,80.72
2022-10-16T03:57:28.275Z,80.68
2022-10-16T03:58:31.743Z,79.70
2022-10-16T03:59:34.572Z,80.45
2022-10-16T04:00:40.811Z,80.43
2022-10-16T04:01:43.883Z,80.11
2022-10-16T04:03:55.022Z,80.13
2022-10-16T04:04:57.974Z,79.48
2022-10-16T04:06:02.216Z,79.99
2022-10-16T04:07:05.182Z,79.47
2022-10-16T04:08:08.313Z,80.21
2022-10-16T04:09:11.536Z,80.29
2022-10-16T04:10:14.993Z,80.29
2022-10-16T04:11:17.939Z,80.18
2022-10-16T04:12:20.935Z,80.16
2022-10-16T04:13:23.911Z,80.18
2022-10-16T04:14:27.844Z,80.21
2022-10-16T04:15:31.196Z,79.95
2022-10-16T04:16:34.060Z,80.13
2022-10-16T04:17:36.983Z,79.85
2022-10-16T04:18:40.035Z,79.99
2022-10-16T04:19:43.236Z,80.03
2022-10-16T04:20:46.138Z,80.05
2022-10-16T04:21:48.988Z,80.00
2022-10-16T04:22:51.837Z,79.93
2022-10-16T04:23:54.830Z,79.69
2022-10-16T04:24:57.989Z,79.60
2022-10-16T04:26:01.482Z,79.82
2022-10-16T04:27:04.454Z,79.79
2022-10-16T04:28:07.536Z,79.74
2022-10-16T04:29:10.526Z,79.75
2022-10-16T04:30:16.670Z,79.76
2022-10-16T04:31:19.512Z,79.78
2022-10-16T04:32:22.433Z,79.31
2022-10-16T04:33:25.324Z,79.23
2022-10-16T04:34:28.272Z,79.60
2022-10-16T04:35:31.950Z,79.65
2022-10-16T04:36:34.860Z,79.62
2022-10-16T04:37:37.934Z,79.40
2022-10-16T04:38:40.967Z,79.35
2022-10-16T04:39:44.747Z,79.54
2022-10-16T04:40:47.625Z,79.56
2022-10-16T04:41:50.513Z,79.55
2022-10-16T04:42:53.704Z,79.27
2022-10-16T04:43:56.617Z,79.26
2022-10-16T04:44:59.735Z,79.52
2022-10-16T04:46:05.650Z,79.20
2022-10-16T04:47:09.290Z,79.46
2022-10-16T04:48:12.310Z,79.38
2022-10-16T04:49:15.371Z,79.38
2022-10-16T04:50:18.328Z,79.30
2022-10-16T04:51:35.310Z,79.10
2022-10-16T04:52:38.254Z,79.29
2022-10-16T04:53:41.100Z,79.36
2022-10-16T04:54:46.102Z,79.41
2022-10-16T04:55:49.301Z,79.40
2022-10-16T04:56:53.015Z,79.39
2022-10-16T04:57:55.893Z,79.43
2022-10-16T04:58:58.725Z,79.42
2022-10-16T05:00:01.958Z,79.47
2022-10-16T05:01:05.130Z,78.96
2022-10-16T05:02:08.162Z,79.27
2022-10-16T05:03:11.100Z,79.41
2022-10-16T05:04:16.009Z,79.41
2022-10-16T05:05:20.514Z,79.44
2022-10-16T05:06:23.448Z,79.51
2022-10-16T05:07:26.731Z,79.48
2022-10-16T05:08:30.503Z,79.51
2022-10-16T05:09:33.367Z,79.51
2022-10-16T05:10:36.337Z,79.52
2022-10-16T05:11:39.403Z,79.53
2022-10-16T05:12:42.335Z,79.63
2022-10-16T05:13:45.351Z,79.38
2022-10-16T05:14:48.282Z,79.25
2022-10-16T05:15:51.238Z,79.66
2022-10-16T05:16:54.312Z,79.74
2022-10-16T05:17:57.420Z,78.98
2022-10-16T05:20:23.296Z,79.77
2022-10-16T05:21:26.111Z,79.81
2022-10-16T05:22:28.933Z,79.85
2022-10-16T05:23:32.048Z,79.83
2022-10-16T05:24:35.024Z,79.89
2022-10-16T05:25:38.022Z,79.70
2022-10-16T05:26:41.044Z,79.83
2022-10-16T05:27:44.502Z,79.76
2022-10-16T05:28:47.774Z,79.47
2022-10-16T05:29:50.649Z,79.81
2022-10-16T05:30:53.518Z,79.92
2022-10-16T05:31:56.390Z,79.65
2022-10-16T05:32:59.457Z,79.93
2022-10-16T05:34:02.924Z,79.94
2022-10-16T05:35:07.609Z,79.91
2022-10-16T05:36:13.922Z,79.88
2022-10-16T05:37:16.876Z,79.87
2022-10-16T05:38:19.961Z,79.73
2022-10-16T05:39:22.902Z,79.24
2022-10-16T05:40:25.685Z,79.11
2022-10-16T05:41:28.595Z,79.28
2022-10-16T05:42:31.615Z,79.30
2022-10-16T05:43:34.504Z,79.32
2022-10-16T05:44:37.469Z,79.49
2022-10-16T05:45:40.355Z,79.63
2022-10-16T05:46:43.357Z,79.57
2022-10-16T05:47:47.357Z,79.62
2022-10-16T05:48:52.932Z,79.02
2022-10-16T05:49:56.500Z,79.08
2022-10-16T05:51:06.412Z,78.96
2022-10-16T05:52:09.254Z,78.92
2022-10-16T05:53:13.214Z,78.88
2022-10-16T05:54:16.296Z,79.20
2022-10-16T05:55:19.409Z,78.69
2022-10-16T05:56:22.354Z,78.92
2022-10-16T05:57:25.938Z,79.10
2022-10-16T05:58:30.062Z,79.21
2022-10-16T05:59:33.312Z,79.18
2022-10-16T06:00:36.199Z,79.11
2022-10-16T06:01:39.152Z,79.13
2022-10-16T06:02:42.091Z,79.04
2022-10-16T06:03:45.387Z,78.95
2022-10-16T06:04:48.335Z,79.11
2022-10-16T06:05:51.491Z,79.06
2022-10-16T06:07:01.305Z,78.83
2022-10-16T06:08:04.482Z,78.79
2022-10-16T06:09:07.562Z,78.52
2022-10-16T06:10:10.461Z,78.76
2022-10-16T06:11:15.168Z,78.68
2022-10-16T06:12:18.100Z,78.41
2022-10-16T06:13:20.932Z,78.51
2022-10-16T06:14:23.958Z,78.66
2022-10-16T06:15:26.893Z,78.62
2022-10-16T06:16:30.518Z,78.38
2022-10-16T06:17:35.504Z,78.69
2022-10-16T06:18:38.405Z,78.68
2022-10-16T06:19:41.381Z,78.64
2022-10-16T06:20:45.573Z,78.66
2022-10-16T06:21:49.030Z,78.59
2022-10-16T06:22:51.834Z,78.62
2022-10-16T06:23:55.713Z,78.64
2022-10-16T06:24:58.491Z,78.52
2022-10-16T06:26:11.794Z,78.51
2022-10-16T06:27:14.701Z,78.53
2022-10-16T06:28:21.992Z,78.60
2022-10-16T06:29:25.031Z,78.47
2022-10-16T06:30:28.209Z,78.63
2022-10-16T06:31:34.369Z,78.67
2022-10-16T06:32:37.739Z,78.69
2022-10-16T06:33:40.614Z,78.76
2022-10-16T06:34:44.228Z,78.85
2022-10-16T06:35:47.411Z,78.43
2022-10-16T06:36:50.405Z,78.72
2022-10-16T06:37:56.523Z,78.75
2022-10-16T06:38:59.611Z,78.48
2022-10-16T06:40:05.251Z,78.80
2022-10-16T06:41:08.842Z,78.75
2022-10-16T06:42:11.674Z,78.79
2022-10-16T06:43:14.590Z,78.96
2022-10-16T06:44:17.425Z,78.86
2022-10-16T06:45:20.356Z,79.00
2022-10-16T06:46:24.693Z,79.04
2022-10-16T06:47:28.150Z,79.22
2022-10-16T06:48:31.563Z,79.01
2022-10-16T06:49:34.394Z,79.16
2022-10-16T06:50:37.279Z,78.94
2022-10-16T06:51:43.345Z,79.30
2022-10-16T06:52:46.848Z,79.36
2022-10-16T06:54:06.383Z,79.44
2022-10-16T06:55:09.834Z,79.29
2022-10-16T06:56:14.211Z,79.23
2022-10-16T06:57:17.852Z,79.40
2022-10-16T06:58:21.117Z,79.78
2022-10-16T06:59:24.146Z,79.97
2022-10-16T07:00:29.914Z,80.11
2022-10-16T07:01:33.338Z,80.35
2022-10-16T07:02:36.196Z,80.50
2022-10-16T07:03:40.080Z,80.68
2022-10-16T07:04:43.233Z,80.74
2022-10-16T07:05:46.073Z,80.67
2022-10-16T07:06:48.969Z,80.87
2022-10-16T07:07:52.146Z,80.72
2022-10-16T07:08:55.331Z,80.88
2022-10-16T07:09:58.458Z,80.02
2022-10-16T07:11:02.160Z,80.13
2022-10-16T07:12:05.245Z,80.12
2022-10-16T07:13:08.676Z,80.60
2022-10-16T07:14:17.109Z,81.04
2022-10-16T07:15:20.236Z,80.79
2022-10-16T07:16:31.103Z,81.23
2022-10-16T07:17:34.119Z,81.43
2022-10-16T07:18:37.919Z,81.38
2022-10-16T07:19:40.921Z,81.46
2022-10-16T07:20:44.078Z,81.49
2022-10-16T07:21:47.091Z,81.42
2022-10-16T07:22:50.902Z,81.39
2022-10-16T07:23:54.660Z,81.43
2022-10-16T07:24:57.679Z,81.25
2022-10-16T07:26:00.903Z,81.12
2022-10-16T07:27:03.917Z,81.09
2022-10-16T07:28:07.961Z,81.04
2022-10-16T07:29:15.212Z,80.92
2022-10-16T07:30:18.139Z,80.47
2022-10-16T07:31:21.560Z,80.60
2022-10-16T07:32:26.831Z,80.57
2022-10-16T07:33:30.197Z,80.53
2022-10-16T07:34:33.259Z,80.45
2022-10-16T07:35:36.117Z,80.45
2022-10-16T07:36:39.193Z,80.37
2022-10-16T07:37:45.355Z,80.12
2022-10-16T07:38:48.803Z,80.25
2022-10-16T07:39:51.771Z,79.96
2022-10-16T07:41:01.744Z,80.16
2022-10-16T07:42:04.839Z,80.16
2022-10-16T07:43:08.292Z,80.19
2022-10-16T07:44:11.133Z,80.26
2022-10-16T07:45:14.341Z,80.12
2022-10-16T07:46:17.763Z,79.99
2022-10-16T07:47:21.730Z,80.14
2022-10-16T07:48:25.380Z,80.12
2022-10-16T07:49:28.251Z,80.17
2022-10-16T07:50:31.151Z,80.04
2022-10-16T07:51:34.281Z,80.04
2022-10-16T07:52:37.509Z,79.97
2022-10-16T07:53:40.365Z,79.69
2022-10-16T07:54:43.298Z,79.66
2022-10-16T07:55:46.311Z,79.72
2022-10-16T07:56:49.243Z,79.96
2022-10-16T07:57:52.267Z,79.95
2022-10-16T07:58:55.330Z,79.88
2022-10-16T07:59:58.271Z,79.73
2022-10-16T08:01:04.377Z,79.93
2022-10-16T08:02:08.455Z,79.93
2022-10-16T08:03:11.398Z,79.92
2022-10-16T08:04:14.219Z,79.91
2022-10-16T08:05:17.115Z,79.89
2022-10-16T08:06:25.016Z,79.83
2022-10-16T08:07:30.865Z,79.44
2022-10-16T08:08:34.132Z,79.23
2022-10-16T08:09:37.006Z,79.40
2022-10-16T08:10:39.883Z,79.26
2022-10-16T08:11:42.864Z,79.22
2022-10-16T08:12:45.817Z,79.16
2022-10-16T08:13:48.902Z,79.13
2022-10-16T08:14:51.853Z,78.98
2022-10-16T08:15:54.869Z,78.97
2022-10-16T08:16:57.764Z,79.03
2022-10-16T08:18:04.206Z,79.09
2022-10-16T08:19:09.385Z,78.84
2022-10-16T08:20:12.464Z,78.83
2022-10-16T08:21:20.501Z,78.79
2022-10-16T08:22:24.620Z,78.84
2022-10-16T08:23:28.308Z,78.68
2022-10-16T08:24:32.281Z,78.59
2022-10-16T08:25:35.649Z,78.52
2022-10-16T08:26:38.590Z,78.55
2022-10-16T08:27:41.482Z,78.56
2022-10-16T08:28:44.453Z,78.56
2022-10-16T08:29:47.584Z,78.64
2022-10-16T08:30:50.503Z,78.66
2022-10-16T08:31:53.304Z,78.54
2022-10-16T08:32:56.178Z,78.48
2022-10-16T08:33:58.999Z,78.52
2022-10-16T08:35:01.991Z,78.45
2022-10-16T08:36:06.000Z,78.33
2022-10-16T08:37:12.190Z,78.22
2022-10-16T08:38:15.171Z,78.20
2022-10-16T08:39:18.051Z,78.14
2022-10-16T08:41:53.732Z,77.86
2022-10-16T08:42:56.533Z,77.76
2022-10-16T08:44:17.909Z,77.77
2022-10-16T08:45:27.215Z,77.75
2022-10-16T08:46:33.474Z,77.75
2022-10-16T08:47:54.821Z,77.66
2022-10-16T08:49:00.048Z,77.66
2022-10-16T08:50:09.011Z,77.64
2022-10-16T08:51:14.834Z,77.66
2022-10-16T08:52:17.936Z,77.65
2022-10-16T08:53:32.362Z,77.69
2022-10-16T08:54:35.915Z,77.55
2022-10-16T08:55:42.545Z,77.55
2022-10-16T08:56:45.564Z,77.47
2022-10-16T08:57:48.441Z,77.38
2022-10-16T08:58:55.125Z,77.25
2022-10-16T09:00:16.109Z,76.99
2022-10-16T09:01:40.920Z,77.07
2022-10-16T09:02:53.318Z,76.97
2022-10-16T09:03:56.257Z,76.90
2022-10-16T09:05:05.423Z,76.97
2022-10-16T09:06:20.682Z,77.01
2022-10-16T09:07:36.068Z,77.12
2022-10-16T09:08:50.990Z,77.14
2022-10-16T09:10:04.558Z,76.77
2022-10-16T09:11:08.631Z,76.61
2022-10-16T09:12:20.551Z,76.84
2022-10-16T09:13:31.072Z,76.90
2022-10-16T09:14:37.349Z,76.84
2022-10-16T09:15:40.320Z,76.70
2022-10-16T09:16:49.971Z,76.57
2022-10-16T09:17:58.864Z,76.73
2022-10-16T09:19:01.716Z,76.76
2022-10-16T09:20:19.397Z,76.72
2022-10-16T09:21:28.141Z,76.20
2022-10-16T09:22:32.568Z,76.13
2022-10-16T09:23:36.474Z,76.11
2022-10-16T09:24:39.447Z,76.28
2022-10-16T09:25:44.506Z,76.02
2022-10-16T09:26:48.161Z,75.83
2022-10-16T09:27:53.551Z,75.75
2022-10-16T09:28:56.585Z,75.88
2022-10-16T09:30:00.275Z,76.02
2022-10-16T09:31:03.261Z,76.02
2022-10-16T09:32:18.512Z,76.11
2022-10-16T09:33:31.114Z,76.09
2022-10-16T09:34:39.352Z,75.94
2022-10-16T09:35:42.272Z,76.13
2022-10-16T09:36:46.183Z,76.20
2022-10-16T09:37:51.427Z,76.28
2022-10-16T09:39:07.810Z,76.00
2022-10-16T09:40:35.344Z,75.92
2022-10-16T09:41:39.606Z,75.91
2022-10-16T09:42:42.829Z,76.00
2022-10-16T09:43:51.132Z,76.13
2022-10-16T09:44:54.666Z,76.18
2022-10-16T09:46:00.092Z,76.17
2022-10-16T09:47:12.435Z,76.23
2022-10-16T09:48:20.483Z,76.21
2022-10-16T09:49:25.234Z,76.11
2022-10-16T09:50:28.978Z,76.16
2022-10-16T09:51:33.659Z,76.24
2022-10-16T09:52:36.712Z,76.26
2022-10-16T09:53:41.747Z,76.11
2022-10-16T09:54:55.410Z,76.20
2022-10-16T09:55:58.832Z,76.27
2022-10-16T09:57:08.543Z,76.32
2022-10-16T09:58:15.006Z,76.23
2022-10-16T09:59:22.052Z,76.22
2022-10-16T10:00:25.576Z,76.25
2022-10-16T10:01:39.322Z,76.29
2022-10-16T10:02:42.383Z,76.32
2022-10-16T10:03:45.871Z,76.36
2022-10-16T10:04:50.999Z,76.36
2022-10-16T10:05:56.266Z,76.37
2022-10-16T10:07:02.979Z,76.31
2022-10-16T10:08:07.322Z,76.22
2022-10-16T10:09:24.503Z,76.21
2022-10-16T10:10:31.640Z,76.24
2022-10-16T10:11:38.580Z,76.31
2022-10-16T10:12:41.971Z,76.34
2022-10-16T10:13:44.818Z,76.36
2022-10-16T10:14:52.418Z,76.38
2022-10-16T10:15:55.245Z,76.35
2022-10-16T10:17:07.578Z,76.25
2022-10-16T10:18:18.060Z,76.32
2022-10-16T10:19:22.633Z,76.37
2022-10-16T10:20:25.536Z,76.33
2022-10-16T10:21:28.496Z,76.32
2022-10-16T10:22:31.759Z,76.32
2022-10-16T10:23:34.556Z,76.27
2022-10-16T10:24:38.947Z,76.23
2022-10-16T10:25:50.243Z,76.28
2022-10-16T10:27:01.799Z,76.33
2022-10-16T10:28:23.284Z,76.37
2022-10-16T10:29:38.179Z,76.43
2022-10-16T10:30:41.039Z,76.38
2022-10-16T10:32:02.556Z,76.35
2022-10-16T10:33:17.704Z,76.23
2022-10-16T10:34:26.593Z,76.24
2022-10-16T10:35:41.551Z,76.30
2022-10-16T10:36:50.665Z,76.34
2022-10-16T10:37:59.632Z,76.31
2022-10-16T10:39:09.284Z,76.20
2022-10-16T10:40:30.773Z,76.13
2022-10-16T10:41:45.847Z,76.02
2022-10-16T10:42:51.742Z,75.92
2022-10-16T10:44:00.282Z,75.98
2022-10-16T10:45:05.866Z,75.91
2022-10-16T10:46:15.194Z,76.00
2022-10-16T10:47:21.076Z,76.08
2022-10-16T10:48:26.617Z,76.14
2022-10-16T10:49:49.033Z,76.18
2022-10-16T10:50:59.709Z,76.19
2022-10-16T10:52:11.930Z,76.22
2022-10-16T10:53:14.683Z,76.19
2022-10-16T10:54:20.336Z,76.04
2022-10-16T10:55:32.667Z,75.87
2022-10-16T10:56:54.311Z,75.63
2022-10-16T10:58:09.665Z,75.44
2022-10-16T10:59:31.091Z,75.54
2022-10-16T11:00:46.014Z,75.57
2022-10-16T11:01:57.167Z,75.63
2022-10-16T11:03:12.187Z,75.66
2022-10-16T11:04:53.545Z,75.55
2022-10-16T11:06:08.825Z,75.53
2022-10-16T11:07:18.267Z,75.56
2022-10-16T11:08:29.183Z,75.57
2022-10-16T11:09:35.714Z,75.51
2022-10-16T11:10:46.480Z,75.45
2022-10-16T11:11:53.680Z,75.59
2022-10-16T11:13:00.874Z,75.53
2022-10-16T11:14:06.758Z,75.23
2022-10-16T11:15:15.339Z,74.99
2022-10-16T11:16:24.817Z,74.87
2022-10-16T11:17:40.630Z,74.82
2022-10-16T11:19:02.189Z,74.14
2022-10-16T11:20:23.924Z,74.29
2022-10-16T11:21:31.180Z,74.34
2022-10-16T11:22:34.235Z,73.56
2022-10-16T11:23:37.024Z,72.24
2022-10-16T11:24:42.924Z,72.62
2022-10-16T11:25:47.287Z,73.15
2022-10-16T11:26:51.430Z,73.27
2022-10-16T11:27:54.221Z,72.36
2022-10-16T11:28:57.736Z,71.86
2022-10-16T11:30:02.432Z,71.10
2022-10-16T11:31:25.807Z,70.31
2022-10-16T11:32:35.487Z,70.90
2022-10-16T11:33:44.011Z,70.58
2022-10-16T11:34:51.107Z,70.55
2022-10-16T11:36:12.723Z,70.00
2022-10-16T11:37:18.553Z,70.29
2022-10-16T11:38:21.383Z,71.19
2022-10-16T11:39:28.539Z,70.82
2022-10-16T11:40:36.713Z,71.35
2022-10-16T11:41:48.682Z,71.08
2022-10-16T11:43:07.133Z,70.27
2022-10-16T11:44:28.745Z,70.22
2022-10-16T11:45:38.898Z,70.45
2022-10-16T11:46:58.910Z,69.94
2022-10-16T11:48:07.291Z,69.88
2022-10-16T11:49:19.775Z,70.63
2022-10-16T11:50:44.872Z,70.68
2022-10-16T11:51:53.815Z,69.92
2022-10-16T11:53:02.098Z,69.73
2022-10-16T11:54:08.139Z,70.75
2022-10-16T11:55:27.038Z,70.29
2022-10-16T11:56:32.051Z,71.73
2022-10-16T11:57:39.967Z,70.23
2022-10-16T11:58:49.346Z,70.15
2022-10-16T12:00:12.586Z,70.20
2022-10-16T12:01:34.095Z,70.13
2022-10-16T12:02:41.674Z,70.10
2022-10-16T12:03:56.662Z,70.00
2022-10-16T12:05:07.064Z,69.79
2022-10-16T12:06:32.456Z,69.16
2022-10-16T12:07:38.177Z,70.80
2022-10-16T12:08:41.326Z,68.95
2022-10-16T12:09:44.246Z,68.20
2022-10-16T12:10:48.384Z,69.18
2022-10-16T12:11:51.199Z,68.15
2022-10-16T12:12:54.534Z,68.27
2022-10-16T12:14:06.172Z,67.09
2022-10-16T12:15:47.033Z,66.88
2022-10-16T12:17:06.435Z,68.14
2022-10-16T12:18:21.739Z,67.46
2022-10-16T12:19:26.257Z,67.69
2022-10-16T12:20:34.003Z,67.90
2022-10-16T12:21:37.090Z,67.89
2022-10-16T12:22:55.682Z,66.69
2022-10-16T12:23:59.717Z,64.85
2022-10-16T12:25:02.486Z,66.33
2022-10-16T12:26:06.389Z,66.96
2022-10-16T12:27:25.387Z,65.96
2022-10-16T12:28:29.991Z,67.85
2022-10-16T12:29:35.884Z,66.67
2022-10-16T12:30:38.918Z,66.52
2022-10-16T12:31:54.591Z,68.29
2022-10-16T12:33:02.739Z,67.61
2022-10-16T12:34:05.753Z,65.57
2022-10-16T12:35:38.079Z,65.20
2022-10-16T12:36:41.010Z,64.65
2022-10-16T12:37:45.118Z,64.65
2022-10-16T12:38:49.091Z,61.58
2022-10-16T12:39:53.347Z,60.80
2022-10-16T12:40:59.222Z,59.84
2022-10-16T12:42:06.584Z,61.29
2022-10-16T12:43:13.449Z,61.10
2022-10-16T12:44:25.135Z,59.21
2022-10-16T12:45:28.179Z,59.09
2022-10-16T12:46:31.058Z,59.43
2022-10-16T12:47:33.978Z,58.78
2022-10-16T12:48:48.805Z,57.76
2022-10-16T12:49:59.254Z,59.82
2022-10-16T12:51:34.382Z,58.72
2022-10-16T12:52:39.243Z,62.02
2022-10-16T12:53:42.107Z,60.79
2022-10-16T12:54:44.925Z,61.02
2022-10-16T12:55:53.986Z,64.24
2022-10-16T12:57:05.861Z,65.58
2022-10-16T12:58:38.019Z,63.00
2022-10-16T12:59:56.163Z,60.91
2022-10-16T13:01:02.653Z,59.25
2022-10-16T13:02:37.921Z,59.27
2022-10-16T13:03:40.970Z,54.82
2022-10-16T13:05:04.055Z,55.40
2022-10-16T13:06:12.906Z,56.36
2022-10-16T13:07:22.037Z,56.37
2022-10-16T13:08:43.429Z,58.30
2022-10-16T13:10:05.874Z,63.45
2022-10-16T13:11:08.664Z,59.61
2022-10-16T13:12:17.460Z,58.44
2022-10-16T13:13:41.499Z,59.61
2022-10-16T13:15:03.128Z,55.92
2022-10-16T13:16:23.942Z,52.70
2022-10-16T13:17:32.650Z,56.41
2022-10-16T13:18:47.907Z,54.79
2022-10-16T13:20:06.226Z,54.16
2022-10-16T13:21:19.393Z,58.76
2022-10-16T13:22:25.380Z,53.69
2022-10-16T13:23:39.469Z,56.93
2022-10-16T13:24:54.743Z,55.18
2022-10-16T13:26:12.465Z,56.44
2022-10-16T13:27:33.725Z,55.95
2022-10-16T13:28:39.202Z,55.25
2022-10-16T13:29:42.770Z,54.81
2022-10-16T13:30:52.251Z,55.21
2022-10-16T13:31:55.090Z,55.20
2022-10-16T13:33:01.331Z,55.24
2022-10-16T13:34:06.304Z,55.48
2022-10-16T13:35:26.132Z,56.60
2022-10-16T13:36:30.340Z,57.18
2022-10-16T13:37:33.358Z,57.84
2022-10-16T13:38:37.563Z,58.14
2022-10-16T13:39:40.433Z,58.80
2022-10-16T13:40:54.390Z,58.28
2022-10-16T13:42:04.829Z,60.39
2022-10-16T13:43:10.932Z,59.56
2022-10-16T13:44:18.274Z,60.24
2022-10-16T13:45:22.110Z,59.76
2022-10-16T13:46:25.990Z,61.08
2022-10-16T13:47:30.540Z,60.95
2022-10-16T13:48:35.057Z,61.15
2022-10-16T13:49:37.984Z,61.33
2022-10-16T13:50:40.864Z,60.97
2022-10-16T13:51:54.979Z,61.29
2022-10-16T13:53:27.383Z,61.07
2022-10-16T13:54:30.341Z,61.40
2022-10-16T13:55:33.409Z,61.39
2022-10-16T13:56:36.259Z,61.66
2022-10-16T13:57:39.046Z,62.07
2022-10-16T13:58:42.531Z,62.79
2022-10-16T13:59:45.350Z,63.50
2022-10-16T14:00:55.707Z,63.64
2022-10-16T14:01:59.236Z,64.24
2022-10-16T14:03:04.396Z,64.41
2022-10-16T14:04:09.383Z,63.77
2022-10-16T14:05:15.255Z,63.89
2022-10-16T14:06:22.982Z,63.91
2022-10-16T14:07:27.703Z,63.57
2022-10-16T14:08:31.328Z,63.13
2022-10-16T14:09:36.200Z,62.76
2022-10-16T14:10:39.683Z,62.60
2022-10-16T14:11:56.964Z,62.91
2022-10-16T14:13:01.897Z,62.30
2022-10-16T14:14:04.886Z,62.22
2022-10-16T14:15:17.719Z,62.24
2022-10-16T14:16:22.428Z,62.57
2022-10-16T14:17:33.813Z,62.61
2022-10-16T14:18:39.013Z,62.50
2022-10-16T14:19:42.066Z,62.34
2022-10-16T14:20:45.050Z,62.27
2022-10-16T14:21:47.951Z,62.12
2022-10-16T14:22:58.976Z,62.12
2022-10-16T14:24:11.906Z,61.94
2022-10-16T14:25:20.879Z,62.13